createdAt,value
2023-01-17T00:00:09.763Z,7.20
2023-01-17T00:01:12.522Z,7.19
2023-01-17T00:02:14.020Z,7.08
2023-01-17T00:03:15.545Z,7.04
2023-01-17T00:04:35.813Z,7.05
2023-01-17T00:05:58.479Z,7.07
2023-01-17T00:07:18.331Z,7.02
2023-01-17T00:08:38.208Z,6.98
2023-01-17T00:09:56.772Z,6.96
2023-01-17T00:10:58.752Z,6.98
2023-01-17T00:12:00.565Z,6.98
2023-01-17T00:13:02.513Z,6.97
2023-01-17T00:14:04.024Z,6.97
2023-01-17T00:15:05.833Z,6.93
2023-01-17T00:16:07.578Z,6.92
2023-01-17T00:17:09.121Z,6.91
2023-01-17T00:18:10.594Z,6.93
2023-01-17T00:19:30.784Z,6.97
2023-01-17T00:20:51.035Z,6.90
2023-01-17T00:22:11.004Z,6.88
2023-01-17T00:23:32.983Z,6.86
2023-01-17T00:24:53.296Z,6.86
2023-01-17T00:26:04.016Z,6.77
2023-01-17T00:27:14.300Z,6.77
2023-01-17T00:28:15.750Z,6.76
2023-01-17T00:29:17.193Z,6.73
2023-01-17T00:30:18.699Z,6.66
2023-01-17T00:31:20.207Z,6.67
2023-01-17T00:32:21.673Z,6.71
2023-01-17T00:33:23.385Z,6.71
2023-01-17T00:34:24.801Z,6.68
2023-01-17T00:35:26.658Z,6.69
2023-01-17T00:36:28.133Z,6.66
2023-01-17T00:37:29.559Z,6.65
2023-01-17T00:38:31.961Z,6.66
2023-01-17T00:39:33.484Z,6.67
2023-01-17T00:40:35.482Z,6.66
2023-01-17T00:41:36.961Z,6.64
2023-01-17T00:42:38.463Z,6.64
2023-01-17T00:43:58.701Z,6.69
2023-01-17T00:45:18.826Z,6.73
2023-01-17T00:46:39.292Z,6.68
2023-01-17T00:47:59.191Z,6.66
2023-01-17T00:49:19.593Z,6.65
2023-01-17T00:50:39.760Z,6.69
2023-01-17T00:52:00.109Z,6.66
2023-01-17T00:53:23.682Z,6.59
2023-01-17T00:54:43.896Z,6.52
2023-01-17T00:56:04.204Z,6.46
2023-01-17T00:57:24.788Z,6.40
2023-01-17T00:58:44.945Z,6.36
2023-01-17T01:00:05.109Z,6.38
2023-01-17T01:01:25.312Z,6.36
2023-01-17T01:02:45.484Z,6.32
2023-01-17T01:04:05.387Z,6.36
2023-01-17T01:05:25.365Z,6.39
2023-01-17T01:06:45.470Z,6.41
2023-01-17T01:08:05.583Z,6.45
2023-01-17T01:09:25.836Z,6.49
2023-01-17T01:10:45.875Z,6.50
2023-01-17T01:12:05.884Z,6.47
2023-01-17T01:13:25.851Z,6.48
2023-01-17T01:14:48.905Z,6.46
2023-01-17T01:16:09.016Z,6.47
2023-01-17T01:17:29.058Z,6.50
2023-01-17T01:18:49.439Z,6.50
2023-01-17T01:20:09.561Z,6.47
2023-01-17T01:21:29.805Z,6.46
2023-01-17T01:22:49.883Z,6.37
2023-01-17T01:24:09.479Z,6.32
2023-01-17T01:25:29.560Z,6.35
2023-01-17T01:26:49.804Z,6.34
2023-01-17T01:28:10.197Z,6.28
2023-01-17T01:29:30.580Z,6.18
2023-01-17T01:30:50.676Z,6.16
2023-01-17T01:32:10.605Z,6.22
2023-01-17T01:33:21.386Z,6.19
2023-01-17T01:34:23.104Z,6.15
2023-01-17T01:35:24.648Z,6.09
2023-01-17T01:36:26.150Z,6.09
2023-01-17T01:37:27.701Z,6.09
2023-01-17T01:38:29.172Z,6.05
2023-01-17T01:39:30.664Z,6.10
2023-01-17T01:40:32.686Z,6.13
2023-01-17T01:41:34.214Z,6.13
2023-01-17T01:42:35.712Z,6.15
2023-01-17T01:43:46.247Z,6.18
2023-01-17T01:44:47.854Z,6.27
2023-01-17T01:45:53.113Z,6.25
2023-01-17T01:46:54.669Z,6.30
2023-01-17T01:47:57.236Z,6.32
2023-01-17T01:49:04.728Z,6.35
2023-01-17T01:50:07.459Z,6.35
2023-01-17T01:51:12.294Z,6.36
2023-01-17T01:52:13.833Z,6.37
2023-01-17T01:53:15.304Z,6.38
2023-01-17T01:54:18.077Z,6.35
2023-01-17T01:55:21.182Z,6.38
2023-01-17T01:56:23.462Z,6.39
2023-01-17T01:57:26.911Z,6.39
2023-01-17T01:58:28.666Z,6.36
2023-01-17T01:59:31.033Z,6.40
2023-01-17T02:00:35.907Z,6.44
2023-01-17T02:01:37.532Z,6.46
2023-01-17T02:02:39.163Z,6.48
2023-01-17T02:03:40.683Z,6.48
2023-01-17T02:04:42.157Z,6.46
2023-01-17T02:05:43.760Z,6.45
2023-01-17T02:06:45.995Z,6.49
2023-01-17T02:07:51.307Z,6.50
2023-01-17T02:08:52.858Z,6.51
2023-01-17T02:09:54.566Z,6.53
2023-01-17T02:10:56.035Z,6.51
2023-01-17T02:11:57.536Z,6.45
2023-01-17T02:12:59.020Z,6.48
2023-01-17T02:14:00.540Z,6.43
2023-01-17T02:15:02.114Z,6.40
2023-01-17T02:16:15.449Z,6.41
2023-01-17T02:17:35.907Z,6.45
2023-01-17T02:18:55.845Z,6.41
2023-01-17T02:20:16.063Z,6.43
2023-01-17T02:21:20.594Z,6.44
2023-01-17T02:22:24.822Z,6.40
2023-01-17T02:23:49.537Z,6.37
2023-01-17T02:25:17.563Z,6.35
2023-01-17T02:26:41.409Z,6.37
2023-01-17T02:28:02.668Z,6.38
2023-01-17T02:29:22.795Z,6.35
2023-01-17T02:30:32.272Z,6.36
2023-01-17T02:31:53.840Z,6.36
2023-01-17T02:32:55.383Z,6.31
2023-01-17T02:33:56.849Z,6.36
2023-01-17T02:35:21.689Z,6.30
2023-01-17T02:36:24.647Z,6.30
2023-01-17T02:37:37.457Z,6.32
2023-01-17T02:38:41.721Z,6.32
2023-01-17T02:39:45.184Z,6.27
2023-01-17T02:40:53.280Z,6.26
2023-01-17T02:41:55.682Z,6.26
2023-01-17T02:42:58.379Z,6.17
2023-01-17T02:43:59.875Z,6.17
2023-01-17T02:45:02.074Z,6.17
2023-01-17T02:46:03.828Z,6.18
2023-01-17T02:47:15.885Z,6.19
2023-01-17T02:48:17.989Z,6.17
2023-01-17T02:49:20.117Z,6.19
2023-01-17T02:50:22.452Z,6.13
2023-01-17T02:51:42.585Z,6.15
2023-01-17T02:53:04.567Z,6.09
2023-01-17T02:54:08.671Z,6.06
2023-01-17T02:55:14.204Z,6.10
2023-01-17T02:56:19.689Z,6.14
2023-01-17T02:57:21.149Z,6.14
2023-01-17T02:58:40.470Z,6.12
2023-01-17T02:59:52.781Z,6.08
2023-01-17T03:01:12.694Z,5.99
2023-01-17T03:02:32.770Z,6.01
2023-01-17T03:03:45.231Z,6.03
2023-01-17T03:04:51.401Z,6.04
2023-01-17T03:06:02.018Z,6.10
2023-01-17T03:07:05.201Z,6.09
2023-01-17T03:08:06.756Z,6.11
2023-01-17T03:09:08.330Z,6.15
2023-01-17T03:10:10.160Z,6.16
2023-01-17T03:11:11.884Z,6.18
2023-01-17T03:12:13.405Z,6.20
2023-01-17T03:13:14.896Z,6.20
2023-01-17T03:14:16.483Z,6.18
2023-01-17T03:15:18.003Z,6.19
2023-01-17T03:16:21.089Z,6.20
2023-01-17T03:17:23.588Z,6.23
2023-01-17T03:18:25.093Z,6.23
2023-01-17T03:19:26.652Z,6.24
2023-01-17T03:20:28.207Z,6.23
2023-01-17T03:21:29.671Z,6.23
2023-01-17T03:22:31.180Z,6.20
2023-01-17T03:23:32.704Z,6.24
2023-01-17T03:24:34.267Z,6.22
2023-01-17T03:25:35.767Z,6.22
2023-01-17T03:26:37.894Z,6.24
2023-01-17T03:27:39.361Z,6.25
2023-01-17T03:28:40.833Z,6.29
2023-01-17T03:29:42.394Z,6.30
2023-01-17T03:30:44.038Z,6.26
2023-01-17T03:31:46.598Z,6.29
2023-01-17T03:32:48.103Z,6.25
2023-01-17T03:33:49.690Z,6.24
2023-01-17T03:34:51.163Z,6.25
2023-01-17T03:35:54.700Z,6.25
2023-01-17T03:36:56.189Z,6.26
2023-01-17T03:37:57.751Z,6.25
2023-01-17T03:38:59.288Z,6.28
2023-01-17T03:40:00.775Z,6.34
2023-01-17T03:41:02.296Z,6.33
2023-01-17T03:42:03.852Z,6.33
2023-01-17T03:43:05.331Z,6.33
2023-01-17T03:44:06.903Z,6.37
2023-01-17T03:45:08.663Z,6.41
2023-01-17T03:46:20.497Z,6.39
2023-01-17T03:47:21.993Z,6.38
2023-01-17T03:48:23.513Z,6.36
2023-01-17T03:49:24.977Z,6.37
2023-01-17T03:50:26.520Z,6.37
2023-01-17T03:51:28.084Z,6.40
2023-01-17T03:52:29.612Z,6.42
2023-01-17T03:53:31.133Z,6.43
2023-01-17T03:54:34.456Z,6.43
2023-01-17T03:55:35.968Z,6.40
2023-01-17T03:56:37.472Z,6.39
2023-01-17T03:57:39.138Z,6.36
2023-01-17T03:58:40.590Z,6.32
2023-01-17T03:59:42.035Z,6.35
2023-01-17T04:00:43.571Z,6.36
2023-01-17T04:01:45.210Z,6.37
2023-01-17T04:02:46.733Z,6.38
2023-01-17T04:03:48.347Z,6.37
2023-01-17T04:04:50.181Z,6.36
2023-01-17T04:05:51.734Z,6.37
2023-01-17T04:06:53.278Z,6.33
2023-01-17T04:07:54.807Z,6.33
2023-01-17T04:08:56.532Z,6.33
2023-01-17T04:09:58.013Z,6.33
2023-01-17T04:10:59.587Z,6.33
2023-01-17T04:12:01.666Z,6.36
2023-01-17T04:13:03.136Z,6.37
2023-01-17T04:14:04.650Z,6.36
2023-01-17T04:15:06.362Z,6.31
2023-01-17T04:16:09.731Z,6.18
2023-01-17T04:17:12.115Z,6.16
2023-01-17T04:18:13.637Z,6.12
2023-01-17T04:19:15.139Z,6.06
2023-01-17T04:20:18.399Z,6.00
2023-01-17T04:21:19.892Z,5.92
2023-01-17T04:22:21.389Z,5.78
2023-01-17T04:23:22.843Z,5.71
2023-01-17T04:24:24.646Z,5.65
2023-01-17T04:25:26.128Z,5.65
2023-01-17T04:26:27.685Z,5.66
2023-01-17T04:27:31.226Z,5.56
2023-01-17T04:28:32.779Z,5.57
2023-01-17T04:29:34.325Z,5.58
2023-01-17T04:30:35.870Z,5.58
2023-01-17T04:31:37.436Z,5.57
2023-01-17T04:32:38.984Z,5.54
2023-01-17T04:33:40.491Z,5.60
2023-01-17T04:34:41.983Z,5.68
2023-01-17T04:35:43.460Z,5.70
2023-01-17T04:36:45.149Z,5.75
2023-01-17T04:37:46.966Z,5.80
2023-01-17T04:38:48.470Z,5.84
2023-01-17T04:39:49.992Z,5.89
2023-01-17T04:40:51.456Z,5.86
2023-01-17T04:41:52.949Z,5.87
2023-01-17T04:42:54.520Z,5.92
2023-01-17T04:43:56.069Z,5.92
2023-01-17T04:44:57.577Z,5.97
2023-01-17T04:45:59.102Z,5.99
2023-01-17T04:47:02.062Z,5.99
2023-01-17T04:48:05.071Z,5.92
2023-01-17T04:49:06.609Z,5.94
2023-01-17T04:50:08.696Z,5.98
2023-01-17T04:51:10.219Z,6.03
2023-01-17T04:52:11.784Z,6.00
2023-01-17T04:53:13.252Z,6.00
2023-01-17T04:54:14.806Z,5.96
2023-01-17T04:55:16.326Z,6.02
2023-01-17T04:56:17.814Z,6.06
2023-01-17T04:57:19.622Z,6.05
2023-01-17T04:58:21.144Z,6.05
2023-01-17T04:59:22.666Z,6.10
2023-01-17T05:00:24.402Z,6.12
2023-01-17T05:01:26.088Z,6.15
2023-01-17T05:02:27.676Z,6.15
2023-01-17T05:03:29.503Z,6.15
2023-01-17T05:04:31.005Z,6.09
2023-01-17T05:05:32.561Z,5.99
2023-01-17T05:06:34.175Z,5.91
2023-01-17T05:07:35.923Z,5.84
2023-01-17T05:08:37.687Z,5.87
2023-01-17T05:09:39.243Z,5.87
2023-01-17T05:10:40.797Z,5.88
2023-01-17T05:11:42.279Z,5.94
2023-01-17T05:12:43.750Z,5.94
2023-01-17T05:13:47.336Z,5.93
2023-01-17T05:14:49.101Z,5.87
2023-01-17T05:15:50.678Z,5.77
2023-01-17T05:16:52.868Z,5.77
2023-01-17T05:17:54.371Z,5.83
2023-01-17T05:18:55.992Z,5.84
2023-01-17T05:19:57.462Z,5.80
2023-01-17T05:21:02.787Z,5.84
2023-01-17T05:22:15.039Z,5.88
2023-01-17T05:23:16.707Z,5.93
2023-01-17T05:24:18.866Z,5.96
2023-01-17T05:25:45.787Z,5.98
2023-01-17T05:26:54.616Z,6.04
2023-01-17T05:27:56.498Z,6.05
2023-01-17T05:28:58.006Z,6.01
2023-01-17T05:29:59.500Z,5.99
2023-01-17T05:31:01.479Z,6.03
2023-01-17T05:32:03.394Z,6.04
2023-01-17T05:33:04.870Z,6.07
2023-01-17T05:34:06.374Z,6.11
2023-01-17T05:35:08.148Z,6.15
2023-01-17T05:36:09.665Z,6.19
2023-01-17T05:37:11.282Z,6.20
2023-01-17T05:38:12.731Z,6.14
2023-01-17T05:39:14.247Z,6.16
2023-01-17T05:40:18.796Z,6.15
2023-01-17T05:41:20.295Z,6.21
2023-01-17T05:42:21.829Z,6.17
2023-01-17T05:43:23.454Z,6.17
2023-01-17T05:44:25.013Z,6.19
2023-01-17T05:45:26.967Z,6.22
2023-01-17T05:46:28.451Z,6.27
2023-01-17T05:47:29.929Z,6.30
2023-01-17T05:48:31.488Z,6.29
2023-01-17T05:49:32.956Z,6.24
2023-01-17T05:50:35.197Z,6.18
2023-01-17T05:51:37.903Z,6.10
2023-01-17T05:52:39.462Z,6.09
2023-01-17T05:53:40.962Z,6.03
2023-01-17T05:54:42.491Z,5.99
2023-01-17T05:55:43.996Z,5.97
2023-01-17T05:56:45.582Z,5.95
2023-01-17T05:57:47.073Z,5.98
2023-01-17T05:58:48.557Z,6.01
2023-01-17T05:59:50.068Z,6.06
2023-01-17T06:00:51.583Z,6.04
2023-01-17T06:01:54.331Z,6.03
2023-01-17T06:02:56.419Z,6.06
2023-01-17T06:03:58.094Z,6.11
2023-01-17T06:05:01.305Z,6.13
2023-01-17T06:06:04.178Z,6.14
2023-01-17T06:07:05.640Z,6.12
2023-01-17T06:08:07.196Z,6.13
2023-01-17T06:09:08.764Z,6.18
2023-01-17T06:10:10.879Z,6.18
2023-01-17T06:11:12.362Z,6.19
2023-01-17T06:12:13.852Z,6.22
2023-01-17T06:13:20.726Z,6.24
2023-01-17T06:14:22.267Z,6.26
2023-01-17T06:15:23.791Z,6.25
2023-01-17T06:16:25.349Z,6.26
2023-01-17T06:17:26.886Z,6.28
2023-01-17T06:18:28.364Z,6.25
2023-01-17T06:19:30.021Z,6.24
2023-01-17T06:20:31.471Z,6.26
2023-01-17T06:21:32.988Z,6.26
2023-01-17T06:22:34.521Z,6.31
2023-01-17T06:23:36.011Z,6.36
2023-01-17T06:24:37.544Z,6.39
2023-01-17T06:25:39.534Z,6.42
2023-01-17T06:26:43.238Z,6.42
2023-01-17T06:27:44.737Z,6.41
2023-01-17T06:28:47.021Z,6.39
2023-01-17T06:29:48.556Z,6.37
2023-01-17T06:30:50.052Z,6.32
2023-01-17T06:31:51.593Z,6.36
2023-01-17T06:32:53.907Z,6.36
2023-01-17T06:33:55.518Z,6.35
2023-01-17T06:34:56.998Z,6.35
2023-01-17T06:35:58.454Z,6.36
2023-01-17T06:37:00.056Z,6.38
2023-01-17T06:38:01.555Z,6.38
2023-01-17T06:39:03.068Z,6.36
2023-01-17T06:40:04.938Z,6.38
2023-01-17T06:41:06.488Z,6.35
2023-01-17T06:42:08.003Z,6.33
2023-01-17T06:43:09.477Z,6.36
2023-01-17T06:44:10.970Z,6.37
2023-01-17T06:45:12.572Z,6.34
2023-01-17T06:46:14.102Z,6.28
2023-01-17T06:47:15.667Z,6.29
2023-01-17T06:48:17.153Z,6.24
2023-01-17T06:49:18.761Z,6.19
2023-01-17T06:50:20.263Z,6.20
2023-01-17T06:51:21.790Z,6.18
2023-01-17T06:52:23.336Z,6.16
2023-01-17T06:53:24.918Z,6.19
2023-01-17T06:54:27.022Z,6.21
2023-01-17T06:55:28.906Z,6.17
2023-01-17T06:56:31.542Z,6.15
2023-01-17T06:57:33.184Z,6.15
2023-01-17T06:58:34.853Z,6.12
2023-01-17T06:59:36.426Z,6.05
2023-01-17T07:00:40.599Z,6.05
2023-01-17T07:01:42.657Z,6.07
2023-01-17T07:02:47.806Z,6.08
2023-01-17T07:03:49.474Z,6.13
2023-01-17T07:04:51.061Z,6.18
2023-01-17T07:05:53.147Z,6.19
2023-01-17T07:06:54.695Z,6.25
2023-01-17T07:07:56.269Z,6.18
2023-01-17T07:08:59.044Z,6.23
2023-01-17T07:10:00.870Z,6.19
2023-01-17T07:11:03.147Z,6.14
2023-01-17T07:12:04.665Z,6.13
2023-01-17T07:13:06.216Z,6.13
2023-01-17T07:14:11.838Z,6.15
2023-01-17T07:15:13.472Z,6.13
2023-01-17T07:16:15.108Z,6.06
2023-01-17T07:17:16.631Z,6.09
2023-01-17T07:18:20.721Z,6.08
2023-01-17T07:19:22.522Z,6.09
2023-01-17T07:20:24.073Z,6.10
2023-01-17T07:21:25.589Z,6.07
2023-01-17T07:22:27.152Z,6.07
2023-01-17T07:23:28.671Z,6.01
2023-01-17T07:24:30.215Z,6.02
2023-01-17T07:25:31.697Z,6.03
2023-01-17T07:26:33.260Z,6.02
2023-01-17T07:27:34.774Z,6.02
2023-01-17T07:28:36.287Z,6.00
2023-01-17T07:29:37.727Z,6.00
2023-01-17T07:30:39.301Z,6.00
2023-01-17T07:31:40.917Z,6.03
2023-01-17T07:32:42.471Z,6.03
2023-01-17T07:33:43.970Z,6.05
2023-01-17T07:34:47.748Z,6.06
2023-01-17T07:35:49.275Z,6.11
2023-01-17T07:36:50.772Z,6.16
2023-01-17T07:37:52.386Z,6.23
2023-01-17T07:38:54.070Z,6.28
2023-01-17T07:39:55.609Z,6.26
2023-01-17T07:41:00.120Z,6.30
2023-01-17T07:42:01.689Z,6.36
2023-01-17T07:43:03.277Z,6.40
2023-01-17T07:44:06.152Z,6.43
2023-01-17T07:45:08.086Z,6.41
2023-01-17T07:46:09.634Z,6.43
2023-01-17T07:47:11.388Z,6.44
2023-01-17T07:48:12.970Z,6.29
2023-01-17T07:49:14.690Z,6.34
2023-01-17T07:50:16.205Z,6.37
2023-01-17T07:51:17.964Z,6.33
2023-01-17T07:52:19.463Z,6.31
2023-01-17T07:53:21.647Z,6.30
2023-01-17T07:54:23.210Z,6.33
2023-01-17T07:55:24.764Z,6.37
2023-01-17T07:56:26.243Z,6.38
2023-01-17T07:57:27.706Z,6.41
2023-01-17T07:58:29.279Z,6.41
2023-01-17T07:59:30.832Z,6.49
2023-01-17T08:00:32.311Z,6.56
2023-01-17T08:01:33.918Z,6.60
2023-01-17T08:02:35.509Z,6.73
2023-01-17T08:03:39.957Z,6.84
2023-01-17T08:04:41.632Z,7.01
2023-01-17T08:05:43.338Z,7.17
2023-01-17T08:06:47.558Z,7.33
2023-01-17T08:07:49.222Z,7.49
2023-01-17T08:08:50.859Z,7.66
2023-01-17T08:09:52.405Z,7.82
2023-01-17T08:10:53.999Z,7.98
2023-01-17T08:11:55.483Z,8.12
2023-01-17T08:12:57.094Z,8.28
2023-01-17T08:13:59.720Z,8.43
2023-01-17T08:15:01.213Z,8.59
2023-01-17T08:16:03.409Z,8.72
2023-01-17T08:17:10.993Z,8.84
2023-01-17T08:18:12.523Z,8.95
2023-01-17T08:19:14.613Z,9.06
2023-01-17T08:20:16.212Z,9.17
2023-01-17T08:21:17.701Z,9.31
2023-01-17T08:22:19.248Z,9.44
2023-01-17T08:23:20.831Z,9.54
2023-01-17T08:24:22.312Z,9.65
2023-01-17T08:25:24.191Z,9.77
2023-01-17T08:26:25.689Z,9.89
2023-01-17T08:27:28.379Z,9.99
2023-01-17T08:28:29.946Z,10.10
2023-01-17T08:29:31.566Z,10.22
2023-01-17T08:30:33.092Z,10.35
2023-01-17T08:31:34.802Z,10.43
2023-01-17T08:32:38.695Z,10.49
2023-01-17T08:33:40.212Z,10.56
2023-01-17T08:34:41.720Z,10.62
2023-01-17T08:35:55.335Z,10.68
2023-01-17T08:36:56.833Z,10.78
2023-01-17T08:37:59.966Z,10.85
2023-01-17T08:39:01.551Z,10.93
2023-01-17T08:40:04.188Z,11.01
2023-01-17T08:41:05.667Z,11.14
2023-01-17T08:42:07.250Z,11.28
2023-01-17T08:43:08.760Z,11.35
2023-01-17T08:44:10.324Z,11.49
2023-01-17T08:45:11.916Z,11.54
2023-01-17T08:46:13.480Z,11.67
2023-01-17T08:47:14.963Z,11.77
2023-01-17T08:48:16.449Z,11.88
2023-01-17T08:49:18.038Z,11.97
2023-01-17T08:50:20.745Z,12.10
2023-01-17T08:51:24.800Z,12.14
2023-01-17T08:52:29.188Z,12.24
2023-01-17T08:53:32.475Z,12.28
2023-01-17T08:54:34.074Z,12.35
2023-01-17T08:55:39.529Z,12.43
2023-01-17T08:56:42.791Z,12.56
2023-01-17T08:57:44.301Z,12.75
2023-01-17T08:58:45.828Z,12.89
2023-01-17T08:59:47.559Z,12.96
2023-01-17T09:00:49.161Z,13.04
2023-01-17T09:01:52.479Z,13.10
2023-01-17T09:02:54.267Z,13.16
2023-01-17T09:03:55.934Z,13.20
2023-01-17T09:04:57.438Z,13.28
2023-01-17T09:06:02.536Z,13.39
2023-01-17T09:07:05.202Z,13.51
2023-01-17T09:08:06.686Z,13.56
2023-01-17T09:09:08.465Z,13.66
2023-01-17T09:10:10.250Z,13.72
2023-01-17T09:11:12.101Z,13.81
2023-01-17T09:12:13.590Z,13.91
2023-01-17T09:13:15.266Z,13.91
2023-01-17T09:14:17.024Z,13.95
2023-01-17T09:15:20.213Z,13.99
2023-01-17T09:16:21.767Z,13.86
2023-01-17T09:17:23.306Z,13.80
2023-01-17T09:18:25.255Z,13.76
2023-01-17T09:19:27.079Z,13.70
2023-01-17T09:20:30.834Z,13.60
2023-01-17T09:21:32.357Z,13.41
2023-01-17T09:22:33.961Z,13.31
2023-01-17T09:23:35.563Z,13.16
2023-01-17T09:24:37.105Z,13.05
2023-01-17T09:25:39.865Z,13.01
2023-01-17T09:26:41.393Z,12.99
2023-01-17T09:27:46.490Z,12.99
2023-01-17T09:28:48.217Z,12.83
2023-01-17T09:29:49.725Z,12.71
2023-01-17T09:30:51.295Z,12.65
2023-01-17T09:31:52.789Z,12.59
2023-01-17T09:32:54.831Z,12.51
2023-01-17T09:33:56.641Z,12.44
2023-01-17T09:35:00.791Z,12.36
2023-01-17T09:36:04.346Z,12.35
2023-01-17T09:37:05.968Z,12.16
2023-01-17T09:38:07.500Z,12.13
2023-01-17T09:39:09.517Z,11.93
2023-01-17T09:40:12.694Z,11.89
2023-01-17T09:41:18.483Z,11.73
2023-01-17T09:42:27.801Z,11.74
2023-01-17T09:43:29.277Z,11.59
2023-01-17T09:44:39.153Z,11.49
2023-01-17T09:45:40.690Z,11.33
2023-01-17T09:46:43.251Z,11.33
2023-01-17T09:47:53.470Z,11.41
2023-01-17T09:49:14.710Z,11.54
2023-01-17T09:50:21.232Z,11.63
2023-01-17T09:51:24.250Z,11.63
2023-01-17T09:52:25.824Z,11.41
2023-01-17T09:53:27.269Z,11.20
2023-01-17T09:54:32.271Z,11.27
2023-01-17T09:55:52.162Z,11.28
2023-01-17T09:57:04.437Z,11.40
2023-01-17T09:58:10.668Z,11.43
2023-01-17T09:59:33.172Z,11.34
2023-01-17T10:00:47.353Z,11.28
2023-01-17T10:01:57.894Z,11.32
2023-01-17T10:03:20.275Z,11.35
2023-01-17T10:04:24.640Z,11.36
2023-01-17T10:05:32.271Z,11.42
2023-01-17T10:06:36.828Z,11.38
2023-01-17T10:07:38.311Z,11.28
2023-01-17T10:09:03.733Z,11.34
2023-01-17T10:10:18.458Z,11.42
2023-01-17T10:11:26.432Z,11.35
2023-01-17T10:12:27.979Z,11.36
2023-01-17T10:13:32.473Z,11.41
2023-01-17T10:14:41.772Z,11.36
2023-01-17T10:15:55.280Z,11.28
2023-01-17T10:17:03.037Z,11.38
2023-01-17T10:18:30.455Z,11.43
2023-01-17T10:19:49.051Z,11.45
2023-01-17T10:20:54.336Z,11.36
2023-01-17T10:21:55.788Z,11.35
2023-01-17T10:23:18.034Z,11.22
2023-01-17T10:24:28.346Z,11.34
2023-01-17T10:25:39.166Z,11.50
2023-01-17T10:26:42.025Z,11.66
2023-01-17T10:27:46.067Z,11.83
2023-01-17T10:28:48.832Z,11.96
2023-01-17T10:29:50.339Z,12.06
2023-01-17T10:30:52.626Z,12.26
2023-01-17T10:31:55.930Z,12.51
2023-01-17T10:32:57.527Z,12.72
2023-01-17T10:34:13.008Z,12.88
2023-01-17T10:35:25.627Z,13.14
2023-01-17T10:36:27.834Z,13.28
2023-01-17T10:37:41.870Z,13.44
2023-01-17T10:38:44.479Z,13.58
2023-01-17T10:39:46.835Z,13.70
2023-01-17T10:40:51.552Z,13.60
2023-01-17T10:41:58.035Z,13.72
2023-01-17T10:42:59.664Z,13.81
2023-01-17T10:44:03.640Z,14.00
2023-01-17T10:45:14.118Z,14.19
2023-01-17T10:46:17.488Z,14.36
2023-01-17T10:47:22.652Z,14.55
2023-01-17T10:48:24.222Z,14.61
2023-01-17T10:49:26.321Z,14.73
2023-01-17T10:50:28.256Z,14.82
2023-01-17T10:51:49.932Z,14.89
2023-01-17T10:53:01.339Z,14.92
2023-01-17T10:54:20.921Z,14.88
2023-01-17T10:55:41.253Z,14.81
2023-01-17T10:56:42.834Z,14.63
2023-01-17T10:57:45.130Z,14.50
2023-01-17T10:58:48.234Z,14.45
2023-01-17T10:59:50.108Z,14.51
2023-01-17T11:00:58.837Z,14.58
2023-01-17T11:02:00.735Z,14.60
2023-01-17T11:03:02.372Z,14.61
2023-01-17T11:04:03.929Z,14.60
2023-01-17T11:05:11.368Z,14.60
2023-01-17T11:06:22.494Z,14.62
2023-01-17T11:07:24.896Z,14.71
2023-01-17T11:08:26.381Z,14.81
2023-01-17T11:09:37.081Z,14.83
2023-01-17T11:10:42.767Z,14.87
2023-01-17T11:11:45.238Z,14.93
2023-01-17T11:12:47.212Z,14.93
2023-01-17T11:13:48.697Z,14.91
2023-01-17T11:15:10.539Z,14.90
2023-01-17T11:16:16.707Z,15.00
2023-01-17T11:17:18.240Z,15.01
2023-01-17T11:18:20.038Z,15.02
2023-01-17T11:19:27.873Z,14.96
2023-01-17T11:20:29.404Z,14.95
2023-01-17T11:21:30.928Z,14.94
2023-01-17T11:22:32.442Z,14.96
2023-01-17T11:23:34.274Z,14.94
2023-01-17T11:24:36.088Z,14.79
2023-01-17T11:25:37.577Z,14.77
2023-01-17T11:26:41.247Z,14.75
2023-01-17T11:27:44.432Z,14.66
2023-01-17T11:28:45.945Z,14.63
2023-01-17T11:29:47.456Z,14.62
2023-01-17T11:30:58.507Z,14.50
2023-01-17T11:32:26.431Z,14.43
2023-01-17T11:33:56.786Z,14.43
2023-01-17T11:35:05.360Z,14.40
2023-01-17T11:36:09.284Z,14.39
2023-01-17T11:37:19.803Z,14.35
2023-01-17T11:38:21.934Z,14.34
2023-01-17T11:39:27.717Z,14.27
2023-01-17T11:40:34.909Z,14.26
2023-01-17T11:41:40.020Z,14.20
2023-01-17T11:42:41.554Z,14.10
2023-01-17T11:43:53.841Z,14.05
2023-01-17T11:44:55.343Z,14.00
2023-01-17T11:46:01.154Z,13.98
2023-01-17T11:47:09.540Z,13.92
2023-01-17T11:48:13.680Z,13.89
2023-01-17T11:49:25.632Z,13.79
2023-01-17T11:50:27.606Z,13.71
2023-01-17T11:51:32.171Z,13.68
2023-01-17T11:52:33.848Z,13.58
2023-01-17T11:53:37.072Z,13.55
2023-01-17T11:54:42.677Z,13.53
2023-01-17T11:55:57.511Z,13.51
2023-01-17T11:57:01.605Z,13.42
2023-01-17T11:58:03.103Z,13.38
2023-01-17T11:59:07.382Z,13.34
2023-01-17T12:00:08.854Z,13.31
2023-01-17T12:01:27.057Z,13.30
2023-01-17T12:02:31.933Z,13.29
2023-01-17T12:03:36.732Z,13.27
2023-01-17T12:04:42.803Z,13.24
2023-01-17T12:05:53.560Z,13.23
2023-01-17T12:07:03.007Z,13.23
2023-01-17T12:08:26.752Z,13.20
2023-01-17T12:09:28.251Z,13.18
2023-01-17T12:10:32.266Z,13.17
2023-01-17T12:12:04.375Z,13.12
2023-01-17T12:13:43.534Z,13.05
2023-01-17T12:15:03.592Z,12.85
2023-01-17T12:16:32.759Z,12.83
2023-01-17T12:17:51.356Z,12.80
2023-01-17T12:19:11.355Z,12.79
2023-01-17T12:20:21.896Z,12.81
2023-01-17T12:21:38.565Z,12.82
2023-01-17T12:22:56.505Z,12.81
2023-01-17T12:23:58.751Z,12.79
2023-01-17T12:25:14.908Z,12.78
2023-01-17T12:26:19.761Z,12.76
2023-01-17T12:27:27.392Z,12.75
2023-01-17T12:28:34.828Z,12.76
2023-01-17T12:29:58.845Z,12.73
2023-01-17T12:31:09.859Z,12.66
2023-01-17T12:32:17.177Z,12.66
2023-01-17T12:33:34.121Z,12.65
2023-01-17T12:34:56.250Z,12.64
2023-01-17T12:35:58.921Z,12.58
2023-01-17T12:37:02.998Z,12.58
2023-01-17T12:38:27.359Z,12.55
2023-01-17T12:39:34.971Z,12.54
2023-01-17T12:41:02.553Z,12.54
2023-01-17T12:42:13.924Z,12.55
2023-01-17T12:43:19.583Z,12.54
2023-01-17T12:44:32.840Z,12.53
2023-01-17T12:45:38.651Z,12.49
2023-01-17T12:46:43.217Z,12.48
2023-01-17T12:47:45.361Z,12.47
2023-01-17T12:48:55.017Z,12.48
2023-01-17T12:49:56.505Z,12.48
2023-01-17T12:51:00.247Z,12.47
2023-01-17T12:52:10.688Z,12.45
2023-01-17T12:53:14.889Z,12.44
2023-01-17T12:54:27.550Z,12.42
2023-01-17T12:55:36.754Z,12.40
2023-01-17T12:56:38.500Z,12.38
2023-01-17T12:57:40.960Z,12.36
2023-01-17T12:58:46.985Z,12.34
2023-01-17T12:59:57.052Z,12.33
2023-01-17T13:01:06.981Z,12.30
2023-01-17T13:02:16.342Z,12.28
2023-01-17T13:03:24.685Z,12.25
2023-01-17T13:04:57.652Z,12.23
2023-01-17T13:05:59.806Z,12.21
2023-01-17T13:07:01.330Z,12.17
2023-01-17T13:08:05.369Z,12.17
2023-01-17T13:09:07.713Z,12.15
2023-01-17T13:10:25.007Z,12.14
2023-01-17T13:11:36.072Z,12.11
2023-01-17T13:12:37.618Z,12.08
2023-01-17T13:13:41.226Z,12.05
2023-01-17T13:14:42.757Z,12.01
2023-01-17T13:15:44.260Z,11.98
2023-01-17T13:16:48.604Z,11.97
2023-01-17T13:17:56.901Z,11.96
2023-01-17T13:18:58.610Z,11.94
2023-01-17T13:20:06.948Z,11.93
2023-01-17T13:21:17.350Z,11.81
2023-01-17T13:22:21.776Z,11.82
2023-01-17T13:23:30.396Z,11.83
2023-01-17T13:24:35.516Z,11.82
2023-01-17T13:25:46.390Z,11.81
2023-01-17T13:26:50.790Z,11.78
2023-01-17T13:28:10.788Z,11.79
2023-01-17T13:29:31.095Z,11.78
2023-01-17T13:30:47.952Z,11.76
2023-01-17T13:32:21.977Z,11.75
2023-01-17T13:33:35.459Z,11.71
2023-01-17T13:35:01.617Z,11.70
2023-01-17T13:36:06.199Z,11.69
2023-01-17T13:37:10.468Z,11.68
2023-01-17T13:38:27.070Z,11.68
2023-01-17T13:39:33.170Z,11.65
2023-01-17T13:40:44.009Z,11.64
2023-01-17T13:41:46.161Z,11.63
2023-01-17T13:42:57.605Z,11.61
2023-01-17T13:44:17.975Z,11.62
2023-01-17T13:45:21.149Z,11.59
2023-01-17T13:46:22.675Z,11.57
2023-01-17T13:47:27.539Z,11.57
2023-01-17T13:48:32.897Z,11.57
2023-01-17T13:49:44.151Z,11.57
2023-01-17T13:50:45.702Z,11.56
2023-01-17T13:52:16.668Z,11.56
2023-01-17T13:53:27.207Z,11.53
2023-01-17T13:54:32.392Z,11.53
2023-01-17T13:55:46.300Z,11.52
2023-01-17T13:56:47.791Z,11.49
2023-01-17T13:57:49.251Z,11.46
2023-01-17T13:58:54.343Z,11.44
2023-01-17T13:59:56.437Z,11.39
2023-01-17T14:00:58.125Z,11.38
2023-01-17T14:01:59.777Z,11.35
2023-01-17T14:03:01.332Z,11.34
2023-01-17T14:04:04.027Z,11.31
2023-01-17T14:05:09.942Z,11.31
2023-01-17T14:06:33.034Z,11.30
2023-01-17T14:07:41.140Z,11.30
2023-01-17T14:08:44.449Z,11.29
2023-01-17T14:09:46.017Z,11.27
2023-01-17T14:10:47.896Z,11.25
2023-01-17T14:11:50.449Z,11.25
2023-01-17T14:12:52.012Z,11.24
2023-01-17T14:13:53.564Z,11.25
2023-01-17T14:14:58.777Z,11.23
2023-01-17T14:16:00.377Z,11.23
2023-01-17T14:17:23.577Z,11.22
2023-01-17T14:18:37.541Z,11.16
2023-01-17T14:19:39.095Z,11.15
2023-01-17T14:20:42.860Z,11.13
2023-01-17T14:21:44.382Z,11.11